Friendship, Indiana
Current Conditions -  °F | °C
As of 4:52 PM on Friday 31 Oct 2014 (Local Time) from KCVG Reporting Station
Light Rain Light Rain  
Wind Chill: 31°   Ceiling: 4400
Heat Index: 40°   Visibility: 8mi
Dew Point: 35°   Wind: 18mph
Humidity: 83%   Direction: 300°WNW
Pressure: 29.93"   Gusts: 24mph
Location:  38.97°N, 85.15°W
Report Text: KCVG 312052Z 30016G21KT 8SM -RA FEW013 SCT019 OVC044 04/02 A2993 RMK AO2 SLP138 P0000 60006 T00440017 53004 VISNO 36R
Loading
Personal Weather Stations






























Interactive Weather Map New forecast layout! Learn more

10-Day Weather Forecast

Advertisements
Track Severe Weather on mobile